Time;durP1;ratioP1;P1;durP2;ratioP2;P2;SDS_P1;SDS_P2;PMS_P1;PMS_P2;Temp;Humidity;BMP_temperature;BMP_pressure;BME280_temperature;BME280_humidity;BME280_pressure;Samples;Min_cycle;Max_cycle;Signal;HPM_P1;HPM_P2
2023/10/14 00:00:28;;;;;;;;;;;17.50;99.90;;;;;;4945304;29;19914;-79
2023/10/14 00:02:54;;;;;;;;;;;17.50;99.90;;;;;;4958341;29;19906;-78
2023/10/14 00:05:23;;;;;;;;;;;17.50;99.90;;;;;;4957967;29;19913;-71
2023/10/14 00:07:52;;;;;;;;;;;17.40;99.90;;;;;;4958186;29;19906;-72
2023/10/14 00:10:18;;;;;;;;;;;17.40;99.90;;;;;;4926836;29;19911;-78
2023/10/14 00:12:44;;;;;;;;;;;17.40;99.90;;;;;;4937705;29;20393;-78
2023/10/14 00:15:10;;;;;;;;;;;17.50;99.90;;;;;;4957628;29;19906;-78
2023/10/14 00:17:41;;;;;;;;;;;17.50;99.90;;;;;;4958060;29;19914;-72
2023/10/14 00:20:09;;;;;;;;;;;17.40;99.90;;;;;;4958009;29;20294;-71
2023/10/14 00:22:38;;;;;;;;;;;17.40;99.90;;;;;;4957802;29;20405;-72
2023/10/14 00:25:09;;;;;;;;;;;17.40;99.90;;;;;;4957712;29;19993;-78
2023/10/14 00:27:35;;;;;;;;;;;17.50;99.90;;;;;;4957516;29;19910;-79
2023/10/14 00:30:09;;;;;;;;;;;17.40;99.90;;;;;;4957762;29;19914;-78
2023/10/14 00:32:35;;;;;;;;;;;17.30;99.90;;;;;;4957718;29;19910;-72
2023/10/14 00:35:03;;;;;;;;;;;17.20;99.90;;;;;;4957758;29;19913;-79
2023/10/14 00:37:32;;;;;;;;;;;17.20;99.90;;;;;;4957412;29;19921;-72
2023/10/14 00:40:05;;;;;;;;;;;17.20;99.90;;;;;;4957534;28;19906;-72
2023/10/14 00:42:31;;;;;;;;;;;17.20;99.90;;;;;;4957388;29;19912;-79
2023/10/14 00:44:56;;;;;;;;;;;17.20;99.90;;;;;;4949806;29;19918;-72
2023/10/14 00:47:24;;;;;;;;;;;17.20;99.90;;;;;;4938094;29;19915;-79
2023/10/14 00:49:52;;;;;;;;;;;17.10;99.90;;;;;;4927418;29;19915;-72
2023/10/14 00:52:22;;;;;;;;;;;17.10;99.90;;;;;;4918955;29;20395;-79
2023/10/14 00:59:47;;;;;;;;;;;17.20;99.90;;;;;;4918915;29;19914;-71
2023/10/14 01:02:14;;;;;;;;;;;17.30;99.90;;;;;;4918228;29;19922;-79
2023/10/14 01:04:41;;;;;;;;;;;17.20;99.90;;;;;;4919248;29;20351;-79
2023/10/14 01:07:13;;;;;;;;;;;17.20;99.90;;;;;;4918933;29;19911;-79
2023/10/14 01:12:11;;;;;;;;;;;17.30;99.90;;;;;;4908742;29;19912;-72
2023/10/14 01:14:41;;;;;;;;;;;17.20;99.90;;;;;;4899608;29;19952;-79
2023/10/14 01:17:09;;;;;;;;;;;17.10;99.90;;;;;;4882840;29;19907;-79
2023/10/14 01:19:34;;;;;;;;;;;17.00;99.90;;;;;;4899721;29;20002;-80
2023/10/14 01:22:00;;;;;;;;;;;17.00;99.90;;;;;;4899573;29;19998;-79
2023/10/14 01:24:30;;;;;;;;;;;16.90;99.90;;;;;;4899830;29;19914;-72
2023/10/14 01:27:05;;;;;;;;;;;16.80;99.90;;;;;;4899459;29;19931;-72
2023/10/14 01:29:31;;;;;;;;;;;16.70;99.90;;;;;;4882746;29;20434;-79
2023/10/14 01:32:23;;;;;;;;;;;16.60;99.90;;;;;;4899410;29;20002;-72
2023/10/14 01:34:55;;;;;;;;;;;16.60;99.90;;;;;;4899276;29;19914;-79
2023/10/14 01:37:20;;;;;;;;;;;16.60;99.90;;;;;;4899130;29;19911;-72
2023/10/14 01:39:49;;;;;;;;;;;16.70;99.90;;;;;;4882644;29;19914;-72
2023/10/14 01:42:19;;;;;;;;;;;16.70;99.90;;;;;;4882318;29;20461;-79
2023/10/14 01:44:44;;;;;;;;;;;16.80;99.90;;;;;;4887889;29;19958;-79
2023/10/14 01:47:11;;;;;;;;;;;16.80;99.90;;;;;;4900846;29;20334;-73
2023/10/14 01:49:37;;;;;;;;;;;16.80;99.90;;;;;;4924964;29;19911;-73
2023/10/14 01:52:06;;;;;;;;;;;16.80;99.90;;;;;;4935112;29;19914;-72
2023/10/14 01:54:32;;;;;;;;;;;16.80;99.90;;;;;;4937069;29;19906;-72
2023/10/14 01:56:59;;;;;;;;;;;16.70;99.90;;;;;;4936617;29;19907;-78
2023/10/14 01:59:27;;;;;;;;;;;16.70;99.90;;;;;;4936804;29;19918;-78
2023/10/14 02:01:57;;;;;;;;;;;16.60;99.90;;;;;;4954895;29;19910;-72
2023/10/14 02:04:23;;;;;;;;;;;16.40;99.90;;;;;;4938667;29;19910;-72
2023/10/14 02:07:03;;;;;;;;;;;16.40;99.90;;;;;;4955999;29;19959;-78
2023/10/14 02:09:29;;;;;;;;;;;16.30;99.90;;;;;;4944438;29;19961;-78
2023/10/14 02:11:55;;;;;;;;;;;16.30;99.90;;;;;;4929247;29;19911;-78
2023/10/14 02:14:22;;;;;;;;;;;16.40;99.90;;;;;;4936578;29;20302;-72
2023/10/14 02:16:48;;;;;;;;;;;16.40;99.90;;;;;;4935366;29;19907;-73
2023/10/14 02:20:06;;;;;;;;;;;16.30;99.90;;;;;;4919365;29;19907;-78
2023/10/14 02:22:03;;;;;;;;;;;16.30;99.90;;;;;;4933201;29;19917;-78
2023/10/14 02:24:29;;;;;;;;;;;16.30;99.90;;;;;;4936565;29;20363;-72
2023/10/14 02:26:56;;;;;;;;;;;16.30;99.90;;;;;;4954297;29;20045;-72
2023/10/14 02:29:24;;;;;;;;;;;16.20;99.90;;;;;;4955409;29;19911;-72
2023/10/14 02:31:50;;;;;;;;;;;16.20;99.90;;;;;;4955481;29;19937;-78
2023/10/14 02:34:15;;;;;;;;;;;16.10;99.90;;;;;;4955392;29;19947;-78
2023/10/14 02:36:50;;;;;;;;;;;16.10;99.90;;;;;;4937992;29;19907;-78
2023/10/14 02:39:26;;;;;;;;;;;16.00;99.90;;;;;;4938120;29;20395;-78
2023/10/14 02:44:32;;;;;;;;;;;15.90;99.90;;;;;;4951590;29;19985;-72
2023/10/14 02:47:04;;;;;;;;;;;15.80;99.90;;;;;;4907656;29;19918;-73
2023/10/14 02:49:42;;;;;;;;;;;15.70;99.90;;;;;;4916345;29;20391;-78
2023/10/14 02:52:10;;;;;;;;;;;15.70;99.90;;;;;;4913303;29;19911;-78
2023/10/14 02:54:36;;;;;;;;;;;15.70;99.90;;;;;;4917307;29;20259;-73
2023/10/14 03:00:00;;;;;;;;;;;15.80;99.90;;;;;;4894991;29;19907;-72
2023/10/14 03:02:27;;;;;;;;;;;15.80;99.90;;;;;;4917595;29;19930;-78
2023/10/14 03:09:51;;;;;;;;;;;15.90;99.90;;;;;;4919443;29;20003;-72
2023/10/14 03:12:21;;;;;;;;;;;15.80;99.90;;;;;;4908955;29;19911;-78
2023/10/14 03:14:48;;;;;;;;;;;15.80;99.90;;;;;;4884637;29;20013;-72
2023/10/14 03:17:39;;;;;;;;;;;15.80;99.90;;;;;;4901737;29;19907;-78
2023/10/14 03:20:34;;;;;;;;;;;15.80;99.90;;;;;;4901072;29;19912;-72
2023/10/14 03:23:00;;;;;;;;;;;15.80;99.90;;;;;;4900866;29;19998;-72
2023/10/14 03:25:27;;;;;;;;;;;15.80;99.90;;;;;;4902702;29;19922;-78
2023/10/14 03:27:59;;;;;;;;;;;15.70;99.90;;;;;;4920304;29;19919;-72
2023/10/14 03:30:26;;;;;;;;;;;15.70;99.90;;;;;;4920881;29;19933;-78
2023/10/14 03:32:51;;;;;;;;;;;15.60;99.90;;;;;;4920471;29;19911;-72
2023/10/14 03:35:21;;;;;;;;;;;15.60;99.90;;;;;;4919594;29;20329;-73
2023/10/14 03:37:53;;;;;;;;;;;15.60;99.90;;;;;;4920365;29;19943;-78
2023/10/14 03:43:07;;;;;;;;;;;15.60;99.90;;;;;;4920498;29;19933;-78
2023/10/14 03:45:33;;;;;;;;;;;15.60;99.90;;;;;;4944351;29;20014;-72
2023/10/14 03:48:00;;;;;;;;;;;15.50;99.90;;;;;;4941159;29;20364;-72
2023/10/14 03:50:26;;;;;;;;;;;15.40;99.90;;;;;;4951191;29;19910;-78
2023/10/14 03:52:53;;;;;;;;;;;15.30;99.90;;;;;;4940981;29;20286;-78
2023/10/14 03:55:25;;;;;;;;;;;15.30;99.90;;;;;;4957285;29;19910;-78
2023/10/14 03:58:03;;;;;;;;;;;15.10;99.90;;;;;;4958065;29;19914;-77
2023/10/14 04:00:37;;;;;;;;;;;15.10;99.90;;;;;;4957937;29;19938;-72
2023/10/14 04:03:12;;;;;;;;;;;15.00;99.90;;;;;;4958096;29;19914;-72
2023/10/14 04:05:59;;;;;;;;;;;14.90;99.90;;;;;;4957257;29;19907;-77
2023/10/14 04:08:31;;;;;;;;;;;14.80;99.90;;;;;;4948070;29;19915;-77
2023/10/14 04:11:12;;;;;;;;;;;14.80;99.90;;;;;;4937433;29;19914;-72
2023/10/14 04:13:40;;;;;;;;;;;14.70;99.90;;;;;;4919383;29;19962;-77
2023/10/14 04:16:07;;;;;;;;;;;14.60;99.90;;;;;;4919532;29;19950;-72
2023/10/14 04:18:33;;;;;;;;;;;14.60;99.90;;;;;;4919851;29;20294;-77
2023/10/14 04:23:42;;;;;;;;;;;14.50;99.90;;;;;;4918934;29;20430;-77
2023/10/14 04:26:11;;;;;;;;;;;14.40;99.90;;;;;;4902587;29;19958;-72
2023/10/14 04:28:53;;;;;;;;;;;14.40;99.90;;;;;;4919002;29;19958;-72
2023/10/14 04:31:26;;;;;;;;;;;14.40;99.90;;;;;;4919383;29;20398;-78
2023/10/14 04:33:53;;;;;;;;;;;14.30;99.90;;;;;;4919371;29;20375;-72
2023/10/14 04:36:38;;;;;;;;;;;14.20;99.90;;;;;;4902492;29;19959;-72
2023/10/14 04:39:14;;;;;;;;;;;14.20;99.90;;;;;;4919293;29;19913;-72
2023/10/14 04:41:55;;;;;;;;;;;14.20;99.90;;;;;;4919261;29;20441;-73
2023/10/14 04:44:28;;;;;;;;;;;14.10;99.90;;;;;;4919183;29;19915;-72
2023/10/14 04:47:01;;;;;;;;;;;14.10;99.90;;;;;;4902172;29;19922;-78
2023/10/14 04:49:36;;;;;;;;;;;14.10;99.90;;;;;;4923207;29;19914;-77
2023/10/14 04:52:05;;;;;;;;;;;14.00;99.90;;;;;;4937791;29;19918;-72
2023/10/14 04:54:37;;;;;;;;;;;14.00;99.90;;;;;;4937922;29;20293;-72
2023/10/14 04:57:19;;;;;;;;;;;13.90;99.90;;;;;;4937975;29;19996;-77
2023/10/14 04:59:45;;;;;;;;;;;13.90;99.90;;;;;;4939138;29;20322;-77
2023/10/14 05:02:15;;;;;;;;;;;13.90;99.90;;;;;;4939058;29;19911;-77
2023/10/14 05:04:41;;;;;;;;;;;13.90;99.90;;;;;;4937845;29;20342;-73
2023/10/14 05:07:11;;;;;;;;;;;13.90;99.90;;;;;;4937749;29;19906;-72
2023/10/14 05:09:39;;;;;;;;;;;13.80;99.90;;;;;;4937370;29;19953;-77
2023/10/14 05:12:08;;;;;;;;;;;13.80;99.90;;;;;;4927621;29;19962;-77
2023/10/14 05:14:37;;;;;;;;;;;13.80;99.90;;;;;;4917973;29;19911;-77
2023/10/14 05:19:43;;;;;;;;;;;13.70;99.90;;;;;;4918565;29;19913;-72
2023/10/14 05:22:24;;;;;;;;;;;13.80;99.90;;;;;;4918459;29;19915;-77
2023/10/14 05:24:58;;;;;;;;;;;13.80;99.90;;;;;;4917904;29;20410;-77
2023/10/14 05:27:35;;;;;;;;;;;13.90;99.90;;;;;;4901164;29;19966;-77
2023/10/14 05:30:06;;;;;;;;;;;13.90;99.90;;;;;;4918398;29;20362;-72
2023/10/14 05:32:31;;;;;;;;;;;14.00;99.90;;;;;;4918452;29;20286;-72
2023/10/14 05:34:59;;;;;;;;;;;14.00;99.90;;;;;;4917434;29;19922;-78
2023/10/14 05:37:25;;;;;;;;;;;14.00;99.90;;;;;;4916960;29;19910;-78
2023/10/14 05:39:54;;;;;;;;;;;14.00;99.90;;;;;;4918334;29;19955;-72
2023/10/14 05:42:24;;;;;;;;;;;14.00;99.90;;;;;;4918113;29;19907;-77
2023/10/14 05:44:57;;;;;;;;;;;14.00;99.90;;;;;;4918136;29;19919;-72
2023/10/14 05:47:27;;;;;;;;;;;14.00;99.90;;;;;;4918237;29;19943;-77
2023/10/14 05:49:52;;;;;;;;;;;14.00;99.90;;;;;;4925323;29;20282;-78
2023/10/14 05:52:21;;;;;;;;;;;14.00;99.90;;;;;;4936910;29;19910;-72
2023/10/14 05:54:49;;;;;;;;;;;14.00;99.90;;;;;;4936767;29;19907;-78
2023/10/14 05:57:16;;;;;;;;;;;14.00;99.90;;;;;;4936795;29;19907;-72
2023/10/14 05:59:43;;;;;;;;;;;13.90;99.90;;;;;;4937608;29;19907;-72
2023/10/14 06:02:12;;;;;;;;;;;13.90;99.90;;;;;;4956004;29;19913;-77
2023/10/14 06:04:41;;;;;;;;;;;13.90;99.90;;;;;;4955764;29;20289;-77
2023/10/14 06:07:09;;;;;;;;;;;13.90;99.90;;;;;;4955824;29;19957;-72
2023/10/14 06:09:36;;;;;;;;;;;14.00;99.90;;;;;;4943778;29;19915;-72
2023/10/14 06:12:05;;;;;;;;;;;13.90;99.90;;;;;;4926996;29;20351;-72
2023/10/14 06:14:31;;;;;;;;;;;13.90;99.90;;;;;;4917693;29;20337;-77
2023/10/14 06:16:59;;;;;;;;;;;13.90;99.90;;;;;;4917552;29;19923;-72
2023/10/14 06:19:25;;;;;;;;;;;13.90;99.90;;;;;;4917483;29;19911;-72
2023/10/14 06:21:50;;;;;;;;;;;13.90;99.90;;;;;;4900407;29;19939;-77
2023/10/14 06:24:16;;;;;;;;;;;13.90;99.90;;;;;;4930220;29;19921;-77
2023/10/14 06:26:41;;;;;;;;;;;13.90;99.90;;;;;;4936664;29;20363;-72
2023/10/14 06:29:09;;;;;;;;;;;13.90;99.90;;;;;;4936236;29;20331;-77
2023/10/14 06:31:37;;;;;;;;;;;13.90;99.90;;;;;;4936400;29;19917;-77
2023/10/14 06:34:08;;;;;;;;;;;13.80;99.90;;;;;;4936461;29;19907;-77
2023/10/14 06:36:37;;;;;;;;;;;13.80;99.90;;;;;;4934650;29;19910;-72
2023/10/14 06:39:13;;;;;;;;;;;13.80;99.90;;;;;;4936361;29;19934;-72
2023/10/14 06:41:45;;;;;;;;;;;13.80;99.90;;;;;;4936447;29;20377;-77
2023/10/14 06:44:15;;;;;;;;;;;13.80;99.90;;;;;;4937422;29;20290;-77
2023/10/14 06:46:46;;;;;;;;;;;13.80;99.90;;;;;;4949358;29;20031;-78
2023/10/14 06:49:16;;;;;;;;;;;13.70;99.90;;;;;;4935314;29;20009;-73
2023/10/14 06:51:42;;;;;;;;;;;13.70;99.90;;;;;;4937561;29;20297;-72
2023/10/14 06:54:09;;;;;;;;;;;13.80;99.90;;;;;;4954442;29;19910;-78
2023/10/14 06:56:40;;;;;;;;;;;13.80;99.90;;;;;;4954928;29;19913;-72
2023/10/14 06:59:06;;;;;;;;;;;13.90;99.90;;;;;;4955039;29;20288;-78
2023/10/14 07:01:33;;;;;;;;;;;13.90;99.90;;;;;;4955124;29;19928;-72
2023/10/14 07:03:59;;;;;;;;;;;13.90;99.90;;;;;;4955488;29;20005;-72
2023/10/14 07:06:26;;;;;;;;;;;14.10;99.90;;;;;;4955150;29;19950;-77
2023/10/14 07:08:52;;;;;;;;;;;14.10;99.90;;;;;;4947520;29;19910;-72
2023/10/14 07:11:17;;;;;;;;;;;14.20;99.90;;;;;;4914727;29;19918;-77
2023/10/14 07:13:42;;;;;;;;;;;14.30;99.90;;;;;;4916917;29;20002;-72
2023/10/14 07:16:08;;;;;;;;;;;14.30;99.90;;;;;;4916919;29;19994;-72
2023/10/14 07:18:37;;;;;;;;;;;14.40;99.90;;;;;;4916957;29;19907;-77
2023/10/14 07:21:03;;;;;;;;;;;14.30;99.90;;;;;;4916874;29;19962;-77
2023/10/14 07:23:29;;;;;;;;;;;14.30;99.90;;;;;;4917045;29;19908;-77
2023/10/14 07:25:57;;;;;;;;;;;14.30;99.90;;;;;;4899935;29;19917;-77
2023/10/14 07:28:23;;;;;;;;;;;14.30;99.90;;;;;;4917078;29;19915;-72
2023/10/14 07:30:49;;;;;;;;;;;14.30;99.90;;;;;;4928445;29;19997;-72
2023/10/14 07:33:16;;;;;;;;;;;14.40;99.90;;;;;;4943904;29;19910;-77
2023/10/14 07:35:41;;;;;;;;;;;14.50;99.90;;;;;;4935628;29;19914;-77
2023/10/14 07:38:08;;;;;;;;;;;14.50;99.90;;;;;;4935639;29;20061;-77
2023/10/14 07:40:34;;;;;;;;;;;14.60;99.90;;;;;;4935949;29;20279;-72
2023/10/14 07:43:13;;;;;;;;;;;14.60;99.90;;;;;;4935608;29;20009;-72
2023/10/14 07:45:46;;;;;;;;;;;14.60;99.90;;;;;;4948240;29;20313;-78
2023/10/14 07:48:12;;;;;;;;;;;14.80;99.90;;;;;;4954977;28;19907;-78
2023/10/14 07:50:38;;;;;;;;;;;14.80;99.90;;;;;;4950372;29;19917;-72
2023/10/14 07:53:07;;;;;;;;;;;14.90;99.90;;;;;;4937553;29;19921;-73
2023/10/14 07:55:39;;;;;;;;;;;15.00;99.90;;;;;;4938748;29;20348;-72
2023/10/14 07:58:08;;;;;;;;;;;15.00;99.90;;;;;;4938556;29;19914;-78
2023/10/14 08:00:40;;;;;;;;;;;15.10;99.90;;;;;;4946596;29;19929;-78
2023/10/14 08:03:07;;;;;;;;;;;15.10;99.90;;;;;;4958275;29;20325;-77
2023/10/14 08:05:38;;;;;;;;;;;15.10;99.90;;;;;;4958313;29;19929;-73
2023/10/14 08:08:09;;;;;;;;;;;15.20;99.90;;;;;;4940846;29;19910;-73
2023/10/14 08:10:35;;;;;;;;;;;15.10;99.90;;;;;;4935495;29;19985;-77
2023/10/14 08:13:04;;;;;;;;;;;15.30;99.90;;;;;;4921176;29;19911;-77
2023/10/14 08:15:30;;;;;;;;;;;15.50;99.90;;;;;;4919696;29;19908;-77
2023/10/14 08:17:58;;;;;;;;;;;15.60;99.90;;;;;;4919819;29;20017;-72
2023/10/14 08:20:23;;;;;;;;;;;15.60;99.90;;;;;;4919820;29;19950;-72
2023/10/14 08:22:49;;;;;;;;;;;15.70;99.90;;;;;;4919647;29;19953;-78
2023/10/14 08:25:18;;;;;;;;;;;15.70;99.90;;;;;;4919429;29;20264;-78
2023/10/14 08:27:45;;;;;;;;;;;15.80;99.90;;;;;;4919569;29;20359;-78
2023/10/14 08:30:11;;;;;;;;;;;16.00;99.90;;;;;;4919543;29;19947;-78
2023/10/14 08:32:40;;;;;;;;;;;16.00;99.90;;;;;;4919425;29;19918;-72
2023/10/14 08:35:14;;;;;;;;;;;15.90;99.90;;;;;;4919184;29;19955;-72
2023/10/14 08:37:47;;;;;;;;;;;16.10;99.90;;;;;;4902316;29;19957;-77
2023/10/14 08:40:22;;;;;;;;;;;16.10;99.90;;;;;;4902258;29;19914;-78
2023/10/14 08:43:06;;;;;;;;;;;16.00;99.90;;;;;;4919320;29;20005;-78
2023/10/14 08:45:39;;;;;;;;;;;16.20;99.90;;;;;;4918994;29;19930;-72
2023/10/14 08:48:05;;;;;;;;;;;16.30;99.90;;;;;;4944510;29;20353;-72
2023/10/14 08:50:34;;;;;;;;;;;16.40;99.90;;;;;;4935498;29;20358;-77
2023/10/14 08:53:07;;;;;;;;;;;16.40;99.90;;;;;;4936721;29;20285;-78
2023/10/14 08:55:33;;;;;;;;;;;16.20;99.90;;;;;;4937953;29;20393;-78
2023/10/14 08:58:04;;;;;;;;;;;16.30;99.90;;;;;;4937948;29;19914;-72
2023/10/14 09:00:30;;;;;;;;;;;16.30;99.90;;;;;;4943851;29;20350;-72
2023/10/14 09:02:57;;;;;;;;;;;16.30;99.90;;;;;;4940092;29;20277;-78
2023/10/14 09:05:25;;;;;;;;;;;16.20;99.90;;;;;;4957254;29;19914;-77
2023/10/14 09:07:50;;;;;;;;;;;16.50;99.90;;;;;;4956746;29;19985;-78
2023/10/14 09:10:18;;;;;;;;;;;16.80;99.90;;;;;;4922330;29;20006;-78
2023/10/14 09:12:55;;;;;;;;;;;16.80;99.90;;;;;;4935783;29;20509;-72
2023/10/14 09:15:22;;;;;;;;;;;16.80;99.90;;;;;;4937636;29;19919;-73
2023/10/14 09:17:48;;;;;;;;;;;16.70;99.90;;;;;;4937526;29;19907;-77
2023/10/14 09:20:30;;;;;;;;;;;16.70;99.90;;;;;;4937760;29;20054;-72
2023/10/14 09:23:17;;;;;;;;;;;17.00;99.90;;;;;;4937819;29;19985;-77
2023/10/14 09:25:43;;;;;;;;;;;17.10;99.90;;;;;;4936146;29;19958;-72
2023/10/14 09:28:09;;;;;;;;;;;17.00;99.90;;;;;;4937434;29;19907;-78
2023/10/14 09:30:44;;;;;;;;;;;16.90;99.90;;;;;;4937388;29;19910;-72
2023/10/14 09:33:10;;;;;;;;;;;17.10;99.90;;;;;;4937323;29;20378;-77
2023/10/14 09:35:36;;;;;;;;;;;17.00;99.90;;;;;;4937494;29;19914;-77
2023/10/14 09:38:04;;;;;;;;;;;17.00;99.90;;;;;;4936998;29;19907;-73
2023/10/14 09:40:29;;;;;;;;;;;17.00;99.90;;;;;;4937597;29;20084;-77
2023/10/14 09:42:56;;;;;;;;;;;17.00;99.90;;;;;;4937297;29;19993;-78
2023/10/14 09:45:22;;;;;;;;;;;16.90;99.90;;;;;;4925089;29;19923;-77
2023/10/14 09:47:49;;;;;;;;;;;16.90;99.90;;;;;;4918152;29;19911;-78
2023/10/14 09:50:15;;;;;;;;;;;17.10;99.90;;;;;;4917137;29;20280;-73
2023/10/14 09:52:42;;;;;;;;;;;17.40;99.90;;;;;;4917798;29;19910;-77
2023/10/14 09:55:13;;;;;;;;;;;17.60;99.90;;;;;;4917215;29;19907;-78
2023/10/14 09:57:42;;;;;;;;;;;17.60;99.90;;;;;;4917688;29;19937;-78
2023/10/14 10:00:10;;;;;;;;;;;17.60;99.90;;;;;;4917971;29;19914;-78
2023/10/14 10:02:38;;;;;;;;;;;17.50;99.90;;;;;;4917760;29;19958;-73
2023/10/14 10:05:04;;;;;;;;;;;17.80;99.90;;;;;;4918198;29;19943;-73
2023/10/14 10:07:33;;;;;;;;;;;18.00;99.90;;;;;;4917737;29;19906;-78
2023/10/14 10:10:01;;;;;;;;;;;18.00;99.90;;;;;;4917113;29;19958;-78
2023/10/14 10:12:29;;;;;;;;;;;18.00;99.90;;;;;;4904461;29;19997;-78
2023/10/14 10:15:01;;;;;;;;;;;18.00;99.90;;;;;;4898789;29;19915;-78
2023/10/14 10:17:27;;;;;;;;;;;17.90;99.90;;;;;;4898798;29;20398;-73
2023/10/14 10:19:58;;;;;;;;;;;18.20;99.90;;;;;;4898723;29;19907;-73
2023/10/14 10:22:23;;;;;;;;;;;18.30;99.90;;;;;;4881630;29;19918;-77
2023/10/14 10:24:49;;;;;;;;;;;18.30;99.90;;;;;;4898718;29;20371;-77
2023/10/14 10:27:16;;;;;;;;;;;18.30;99.90;;;;;;4898438;29;19907;-77
2023/10/14 10:29:48;;;;;;;;;;;18.10;99.90;;;;;;4898432;29;19911;-72
2023/10/14 10:32:17;;;;;;;;;;;18.20;99.90;;;;;;4881756;29;19998;-73
2023/10/14 10:35:01;;;;;;;;;;;18.00;99.90;;;;;;4898384;29;19911;-78
2023/10/14 10:37:27;;;;;;;;;;;18.30;99.90;;;;;;4898259;29;19918;-78
2023/10/14 10:39:53;;;;;;;;;;;18.70;99.90;;;;;;4898529;29;19914;-77
2023/10/14 10:42:19;;;;;;;;;;;18.50;99.90;;;;;;4898699;29;20006;-73
2023/10/14 10:44:45;;;;;;;;;;;18.60;99.90;;;;;;4884026;29;19967;-78
2023/10/14 10:47:12;;;;;;;;;;;18.90;99.90;;;;;;4898389;29;19911;-78
2023/10/14 10:49:50;;;;;;;;;;;18.90;99.90;;;;;;4902703;29;19942;-77
2023/10/14 10:52:16;;;;;;;;;;;18.70;99.90;;;;;;4930924;29;20002;-73
2023/10/14 10:54:42;;;;;;;;;;;18.60;99.90;;;;;;4917134;29;19938;-73
2023/10/14 10:57:08;;;;;;;;;;;18.70;99.90;;;;;;4915664;29;19907;-73
2023/10/14 10:59:37;;;;;;;;;;;18.60;99.90;;;;;;4917208;29;20002;-78
2023/10/14 11:02:05;;;;;;;;;;;18.70;99.90;;;;;;4898045;29;19908;-78
2023/10/14 11:04:31;;;;;;;;;;;18.80;99.90;;;;;;4898249;29;20016;-78
2023/10/14 11:06:56;;;;;;;;;;;18.80;99.90;;;;;;4898295;29;19907;-78
2023/10/14 11:09:22;;;;;;;;;;;19.20;99.90;;;;;;4907305;29;19907;-73
2023/10/14 11:11:48;;;;;;;;;;;19.60;99.90;;;;;;4909233;29;19911;-78
2023/10/14 11:14:16;;;;;;;;;;;19.50;99.90;;;;;;4897074;29;19963;-73
2023/10/14 11:16:48;;;;;;;;;;;19.70;99.90;;;;;;4897985;29;19971;-77
2023/10/14 11:19:13;;;;;;;;;;;19.90;99.90;;;;;;4930884;29;20441;-73
2023/10/14 11:21:39;;;;;;;;;;;19.90;99.90;;;;;;4935831;29;19910;-73
2023/10/14 11:24:08;;;;;;;;;;;20.10;99.90;;;;;;4937466;29;19913;-73
2023/10/14 11:26:35;;;;;;;;;;;20.20;99.90;;;;;;4939565;29;19961;-78
2023/10/14 11:29:00;;;;;;;;;;;20.50;99.90;;;;;;4939116;29;20001;-78
2023/10/14 11:31:26;;;;;;;;;;;20.30;99.90;;;;;;4939418;29;19965;-78
2023/10/14 11:33:55;;;;;;;;;;;20.20;99.90;;;;;;4939523;29;19907;-72
2023/10/14 11:36:24;;;;;;;;;;;20.30;99.90;;;;;;4939819;29;19911;-78
2023/10/14 11:38:50;;;;;;;;;;;20.20;99.90;;;;;;4939365;29;19914;-77
2023/10/14 11:41:17;;;;;;;;;;;20.10;99.90;;;;;;4939388;29;19907;-73
2023/10/14 11:43:44;;;;;;;;;;;20.30;99.90;;;;;;4939443;29;19911;-78
2023/10/14 11:46:10;;;;;;;;;;;20.10;99.90;;;;;;4934134;29;20041;-78
2023/10/14 11:48:38;;;;;;;;;;;19.90;99.90;;;;;;4921948;29;19907;-72
2023/10/14 11:51:04;;;;;;;;;;;19.90;99.90;;;;;;4917642;29;19963;-73
2023/10/14 11:53:33;;;;;;;;;;;19.70;99.90;;;;;;4920053;29;20026;-78
2023/10/14 11:56:00;;;;;;;;;;;19.90;99.90;;;;;;4920047;29;19911;-73
2023/10/14 11:58:27;;;;;;;;;;;20.00;99.90;;;;;;4920029;29;19907;-73
2023/10/14 12:00:52;;;;;;;;;;;20.10;99.90;;;;;;4911769;29;19907;-73
2023/10/14 12:03:18;;;;;;;;;;;19.90;99.90;;;;;;4920001;29;19954;-78
2023/10/14 12:05:43;;;;;;;;;;;20.00;99.90;;;;;;4920006;29;19947;-78
2023/10/14 12:08:09;;;;;;;;;;;19.80;99.90;;;;;;4919519;29;19911;-77
2023/10/14 12:10:34;;;;;;;;;;;20.30;99.90;;;;;;4919580;29;20005;-78
2023/10/14 12:13:00;;;;;;;;;;;20.30;99.90;;;;;;4902357;29;19919;-73
2023/10/14 12:15:27;;;;;;;;;;;20.40;99.90;;;;;;4900204;29;19911;-73
2023/10/14 12:17:53;;;;;;;;;;;20.50;99.90;;;;;;4883999;29;19946;-73
2023/10/14 12:20:19;;;;;;;;;;;20.60;99.90;;;;;;4900590;29;19961;-78
2023/10/14 12:22:47;;;;;;;;;;;20.60;99.90;;;;;;4900833;29;19907;-78
2023/10/14 12:25:13;;;;;;;;;;;20.80;99.90;;;;;;4900605;29;19911;-78
2023/10/14 12:27:39;;;;;;;;;;;20.60;99.90;;;;;;4901093;29;19963;-73
2023/10/14 12:30:07;;;;;;;;;;;20.50;99.90;;;;;;4900740;29;19908;-73
2023/10/14 12:32:32;;;;;;;;;;;20.30;99.90;;;;;;4883578;29;19912;-73
2023/10/14 12:34:59;;;;;;;;;;;20.10;99.90;;;;;;4900183;29;19911;-78
2023/10/14 12:37:26;;;;;;;;;;;20.00;99.90;;;;;;4900455;29;20013;-78
2023/10/14 12:40:11;;;;;;;;;;;20.00;99.90;;;;;;4900636;29;19915;-73
2023/10/14 12:42:46;;;;;;;;;;;20.30;99.90;;;;;;4900826;29;19907;-73
2023/10/14 12:45:13;;;;;;;;;;;20.10;99.90;;;;;;4909650;29;20294;-78
2023/10/14 12:47:46;;;;;;;;;;;20.10;99.90;;;;;;4919202;29;19910;-78
2023/10/14 12:50:15;;;;;;;;;;;19.70;99.90;;;;;;4926545;29;19910;-78
2023/10/14 12:52:45;;;;;;;;;;;20.10;99.90;;;;;;4938018;29;19918;-77
2023/10/14 12:55:17;;;;;;;;;;;19.80;99.90;;;;;;4937260;29;19913;-72
2023/10/14 12:57:43;;;;;;;;;;;19.50;99.90;;;;;;4937851;29;19911;-72
2023/10/14 13:00:17;;;;;;;;;;;19.50;99.90;;;;;;4942441;29;19910;-78
2023/10/14 13:02:43;;;;;;;;;;;19.70;99.90;;;;;;4957101;29;19913;-78
2023/10/14 13:05:13;;;;;;;;;;;19.80;99.90;;;;;;4957037;29;19906;-73
2023/10/14 13:07:39;;;;;;;;;;;19.60;99.90;;;;;;4956904;29;19907;-73
2023/10/14 13:10:08;;;;;;;;;;;19.60;99.90;;;;;;4940909;29;20009;-78
2023/10/14 13:12:33;;;;;;;;;;;19.50;99.90;;;;;;4906773;29;20010;-78
2023/10/14 13:15:04;;;;;;;;;;;19.40;99.90;;;;;;4918545;29;19947;-78
2023/10/14 13:17:35;;;;;;;;;;;19.20;99.90;;;;;;4918545;29;20346;-73
2023/10/14 13:20:03;;;;;;;;;;;19.20;99.90;;;;;;4918205;29;20389;-73
2023/10/14 13:22:29;;;;;;;;;;;19.10;99.90;;;;;;4901560;29;19907;-77
2023/10/14 13:24:55;;;;;;;;;;;19.40;99.90;;;;;;4918557;29;19997;-78
2023/10/14 13:27:21;;;;;;;;;;;19.40;99.90;;;;;;4901415;29;19978;-77
2023/10/14 13:29:46;;;;;;;;;;;19.60;99.90;;;;;;4901418;29;19908;-78
2023/10/14 13:32:15;;;;;;;;;;;19.80;99.90;;;;;;4918147;29;19911;-73
2023/10/14 13:34:41;;;;;;;;;;;19.80;99.90;;;;;;4918328;29;19914;-73
2023/10/14 13:37:08;;;;;;;;;;;20.00;99.90;;;;;;4918341;29;20106;-77
2023/10/14 13:39:36;;;;;;;;;;;19.60;99.90;;;;;;4901329;29;19907;-78
2023/10/14 13:42:01;;;;;;;;;;;19.50;99.90;;;;;;4918442;29;19906;-77
2023/10/14 13:44:27;;;;;;;;;;;19.30;99.90;;;;;;4934914;29;19914;-75
2023/10/14 13:46:52;;;;;;;;;;;19.30;99.90;;;;;;4934981;29;19917;-73
2023/10/14 13:49:23;;;;;;;;;;;19.40;99.90;;;;;;4935816;29;20366;-77
2023/10/14 13:51:52;;;;;;;;;;;19.50;99.90;;;;;;4943655;29;19915;-78
2023/10/14 13:54:20;;;;;;;;;;;19.60;99.90;;;;;;4956094;29;19985;-78
2023/10/14 13:56:46;;;;;;;;;;;19.70;99.90;;;;;;4955988;29;19962;-73
2023/10/14 13:59:11;;;;;;;;;;;19.40;99.90;;;;;;4955837;29;20326;-72
2023/10/14 14:01:38;;;;;;;;;;;19.10;99.90;;;;;;4955928;29;19997;-77
2023/10/14 14:04:04;;;;;;;;;;;18.80;99.90;;;;;;4956222;29;19910;-77
2023/10/14 14:06:29;;;;;;;;;;;18.60;99.90;;;;;;4956122;29;20365;-77
2023/10/14 14:08:55;;;;;;;;;;;18.60;99.90;;;;;;4949254;29;19918;-77
2023/10/14 14:11:23;;;;;;;;;;;18.60;99.90;;;;;;4932069;29;19911;-73
2023/10/14 14:13:49;;;;;;;;;;;18.70;99.90;;;;;;4917642;29;20291;-78
2023/10/14 14:16:18;;;;;;;;;;;18.70;99.90;;;;;;4917659;29;19914;-77
2023/10/14 14:18:49;;;;;;;;;;;18.60;99.90;;;;;;4917973;29;19910;-73
2023/10/14 14:21:15;;;;;;;;;;;18.60;99.90;;;;;;4900276;29;19907;-77
2023/10/14 14:23:41;;;;;;;;;;;18.40;99.90;;;;;;4917583;29;20393;-73
2023/10/14 14:26:08;;;;;;;;;;;18.50;99.90;;;;;;4917459;29;19907;-72
2023/10/14 14:28:33;;;;;;;;;;;18.60;99.90;;;;;;4917503;29;19910;-78
2023/10/14 14:31:00;;;;;;;;;;;18.70;99.90;;;;;;4917604;29;20370;-77
2023/10/14 14:33:29;;;;;;;;;;;18.90;99.90;;;;;;4917177;29;19915;-77
2023/10/14 14:35:54;;;;;;;;;;;18.90;99.90;;;;;;4917339;29;19914;-73
2023/10/14 14:38:21;;;;;;;;;;;19.00;99.90;;;;;;4917278;29;19962;-73
2023/10/14 14:40:47;;;;;;;;;;;18.90;99.90;;;;;;4916606;29;19961;-73
2023/10/14 14:43:13;;;;;;;;;;;18.90;99.90;;;;;;4917093;29;19946;-78
2023/10/14 14:45:38;;;;;;;;;;;19.00;99.90;;;;;;4917094;29;19945;-77
2023/10/14 14:48:04;;;;;;;;;;;18.80;99.90;;;;;;4916904;29;19939;-78
2023/10/14 14:50:34;;;;;;;;;;;18.80;99.90;;;;;;4926887;29;19910;-73